Nyk Olympus — 3EOS7 — position and weather

sailwx.info

Track history (hours):
 
Tides and Currents Weather Stations Pressure Air Temp Water Temp Dewpoint Dewpoint Depression Visibility Wind Speed Wind Dir Waves Ship Positions

Nyk Olympus

Last reported at 2015-Jul-04 11:33 UTC. Time now 2015-Jul-04 11:49 UTC.
Position N 53°32' E 009°54'.

Length 335 m; draft 12.1 m.

Type: Other ship. MMSI: 372478000.

Date/timePositionNaut miles runAvg speedWind from/ knotsBaromVisibWave heightAir tempDewpointWater temp
2015-Jul-04 11:33N 53°32' E 009°54'3 2.5
2015-Jul-04 10:32N 53°33' E 009°50'0 0.0
2015-Jul-04 09:32N 53°33' E 009°50'0 0.0
2015-Jul-04 08:26N 53°33' E 009°50'0 0.0
2015-Jul-04 07:33N 53°33' E 009°50'0 0.0
2015-Jul-04 05:28N 53°33' E 009°50'0 0.0
2015-Jul-04 03:29N 53°33' E 009°50'0 0.0
2015-Jul-04 02:29N 53°33' E 009°50'0 0.0
2015-Jul-04 01:23N 53°33' E 009°50'0 0.0
2015-Jul-04 00:29N 53°33' E 009°50'0 0.0
2015-Jul-03 22:32N 53°33' E 009°50'0 0.0
2015-Jul-03 21:33N 53°33' E 009°50'5 5.2
2015-Jul-03 20:33N 53°34' E 009°41'3 2.6
2015-Jul-03 19:34N 53°35' E 009°37'6 5.9
2015-Jul-03 18:33N 53°34' E 009°47'7 6.6
2015-Jul-03 17:34N 53°30' E 009°56'0 0.1
2015-Jul-03 16:33N 53°30' E 009°56'0 0.0
2015-Jul-03 15:33N 53°30' E 009°56'0 0.0
2015-Jul-03 14:33N 53°30' E 009°56'0 0.0
2015-Jul-03 13:33N 53°30' E 009°56'0 0.0
2015-Jul-03 12:33N 53°30' E 009°56'0 0.0
2015-Jul-03 11:33N 53°30' E 009°56'0 0.0
2015-Jul-03 10:33N 53°30' E 009°56'0 0.0
2015-Jul-03 09:33N 53°30' E 009°56'0 0.0
2015-Jul-03 08:20N 53°30' E 009°56'0 0.0
2015-Jul-03 07:29N 53°30' E 009°56'0 0.0
2015-Jul-03 06:27N 53°30' E 009°56'0 0.0
2015-Jul-03 05:31N 53°30' E 009°56'0 0.0
2015-Jul-03 04:24N 53°30' E 009°56'0 0.0
2015-Jul-03 03:28N 53°30' E 009°56'0 0.0
2015-Jul-03 02:30N 53°30' E 009°56'0 0.0
2015-Jul-03 01:33N 53°30' E 009°56'0 0.0
2015-Jul-03 00:33N 53°30' E 009°56'0 0.0
2015-Jul-02 23:33N 53°30' E 009°56'0 0.0
2015-Jul-02 22:33N 53°30' E 009°56'0 0.0
2015-Jul-02 21:33N 53°30' E 009°56'0 0.0
2015-Jul-02 20:33N 53°30' E 009°56'0 0.0
2015-Jul-02 19:33N 53°30' E 009°56'0 0.0
2015-Jul-02 18:33N 53°30' E 009°56'0 0.0
2015-Jul-02 17:30N 53°30' E 009°56'0 0.0
2015-Jul-02 16:33N 53°30' E 009°56'0 0.0
2015-Jul-02 15:33N 53°30' E 009°56'0 0.0
2015-Jul-02 14:27N 53°30' E 009°56'0 0.0
2015-Jul-02 13:33N 53°30' E 009°56'0 0.0
2015-Jul-02 12:30N 53°30' E 009°56'0 0.0
2015-Jul-02 11:30N 53°30' E 009°56'0 0.0
2015-Jul-02 10:33N 53°30' E 009°56'0 0.0
2015-Jul-02 09:33N 53°30' E 009°56'0 0.0
2015-Jul-02 08:33N 53°30' E 009°56'0 0.0
2015-Jul-02 07:29N 53°30' E 009°56'0 0.0
2015-Jul-02 06:24N 53°30' E 009°56'0 0.0
2015-Jul-02 05:33N 53°30' E 009°56'2 2.4
2015-Jul-02 04:33N 53°32' E 009°56'9 8.6
2015-Jul-02 03:33N 53°34' E 009°42'1110.7
2015-Jul-02 02:33N 53°42' E 009°30'1413.7
2015-Jul-02 01:33N 53°53' E 009°15'1111.3
2015-Jul-02 00:33N 53°51' E 008°56'1313.2
2015-Jul-01 23:33N 53°57' E 008°37'1615.6
2015-Jul-01 22:33N 53°59' E 008°10'8 8.2
2015-Jul-01 21:33N 53°58' E 007°56'14 6.6
2015-Jul-01 19:27N 53°55' E 007°33'1716.8
2015-Jul-01 18:28N 53°52' E 007°06'1617.7
2015-Jul-01 17:33N 53°48' E 006°39'1717.3
2015-Jul-01 16:33N 53°43' E 006°11'1716.9
2015-Jul-01 15:34N 53°38' E 005°44'1716.7
2015-Jul-01 14:34N 53°33' E 005°17'1616.1
2015-Jul-01 13:34N 53°27' E 004°52'1514.8
2015-Jul-01 12:34N 53°16' E 004°35'1615.6
2015-Jul-01 11:34N 53°02' E 004°22'1414.3
2015-Jul-01 10:33N 52°49' E 004°13'1313.4
2015-Jul-01 09:33N 52°38' E 004°01'1313.2
2015-Jul-01 08:33N 52°26' E 003°53'1313.4
2015-Jul-01 07:33N 52°12' E 003°53'1110.8
2015-Jul-01 06:33N 52°02' E 003°56'7 6.5
2015-Jul-01 05:33N 51°57' E 004°04'1 0.6
2015-Jul-01 04:33N 51°57' E 004°03'0 0.0
2015-Jul-01 03:33N 51°57' E 004°03'0 0.0
2015-Jul-01 02:33N 51°57' E 004°03'0 0.0
2015-Jul-01 01:33N 51°57' E 004°03'0 0.0
2015-Jul-01 00:33N 51°57' E 004°03'0 0.0
2015-Jun-30 23:31N 51°57' E 004°03'0 0.0
2015-Jun-30 22:31N 51°57' E 004°03'0 0.0
2015-Jun-30 21:31N 51°57' E 004°03'0 0.0
2015-Jun-30 20:31N 51°57' E 004°03'0 0.0
2015-Jun-30 19:31N 51°57' E 004°03'0 0.0
2015-Jun-30 18:32N 51°57' E 004°03'0 0.0
2015-Jun-30 17:31N 51°57' E 004°03'0 0.0
2015-Jun-30 16:31N 51°57' E 004°03'0 0.0
2015-Jun-30 15:31N 51°57' E 004°03'0 0.0
2015-Jun-30 14:31N 51°57' E 004°03'0 0.0
2015-Jun-30 13:28N 51°57' E 004°03'0 0.0
2015-Jun-30 12:31N 51°57' E 004°03'0 0.0
2015-Jun-30 11:31N 51°57' E 004°03'0 0.0
2015-Jun-30 10:31N 51°57' E 004°03'0 0.0
2015-Jun-30 09:31N 51°57' E 004°03'0 0.0
2015-Jun-30 08:31N 51°57' E 004°03'0 0.0
2015-Jun-30 07:31N 51°57' E 004°03'0 0.0
2015-Jun-30 06:31N 51°57' E 004°03'0 0.0
2015-Jun-30 05:31N 51°57' E 004°03'0 0.0
2015-Jun-30 04:31N 51°57' E 004°03'0 0.0
2015-Jun-30 03:31N 51°57' E 004°03'0 0.0
2015-Jun-30 02:31N 51°57' E 004°03'0 0.0
2015-Jun-30 01:31N 51°57' E 004°03'0 0.0
2015-Jun-30 00:31N 51°57' E 004°03'0 0.0
2015-Jun-29 23:31N 51°57' E 004°03'0 0.0
2015-Jun-29 22:31N 51°57' E 004°03'0 0.0
2015-Jun-29 21:31N 51°57' E 004°03'0 0.0
2015-Jun-29 20:31N 51°57' E 004°03'0 0.0
2015-Jun-29 19:31N 51°57' E 004°03'0 0.0
2015-Jun-29 18:31N 51°57' E 004°03'0 0.0
2015-Jun-29 17:31N 51°57' E 004°03'0 0.0
2015-Jun-29 16:31N 51°57' E 004°03'0 0.0
2015-Jun-29 15:31N 51°57' E 004°03'0 0.0
2015-Jun-29 14:31N 51°57' E 004°03'0 0.0
2015-Jun-29 13:31N 51°57' E 004°03'0 0.0
2015-Jun-29 12:28N 51°57' E 004°03'0 0.0
2015-Jun-29 11:31N 51°57' E 004°03'0 0.0
2015-Jun-29 10:31N 51°57' E 004°03'0 0.0
2015-Jun-29 09:31N 51°57' E 004°03'0 0.0
2015-Jun-29 08:28N 51°57' E 004°03'0 0.0
2015-Jun-29 07:31N 51°57' E 004°03'0 0.0
2015-Jun-29 06:31N 51°57' E 004°03'0 0.0
2015-Jun-29 05:31N 51°57' E 004°03'1 1.3
2015-Jun-29 04:33N 51°57' E 004°05'5 5.3
2015-Jun-29 03:33N 52°00' E 003°58'9 8.7
2015-Jun-29 02:34N 51°59' E 003°44'1716.8
2015-Jun-29 01:33N 51°54' E 003°18'1717.5
2015-Jun-29 00:33N 51°48' E 002°51'1717.5
2015-Jun-28 23:34N 51°38' E 002°28'1918.5
2015-Jun-28 22:33N 51°24' E 002°08'1716.9
2015-Jun-28 21:34N 51°10' E 001°54'1919.3
2015-Jun-28 20:34N 50°56' E 001°32'5317.2
2015-Jun-28 17:28N 50°23' E 000°27'1718.6
2015-Jun-28 16:31N 50°17' E 000°01'1818.4
2015-Jun-28 15:33N 50°10' W 000°25'1818.5
2015-Jun-28 14:33N 50°03' W 000°51'1818.4
2015-Jun-28 13:33N 49°55' W 001°17'2812.5
2015-Jun-28 11:21N 49°48' W 001°58'1517.8
2015-Jun-28 10:30N 49°53' W 002°21'1818.5
2015-Jun-28 09:31N 49°49' W 002°48'2519.2
2015-Jun-28 08:12N 49°36' W 003°22'1219.4
2015-Jun-28 07:33N 49°30' W 003°39'2019.4
2015-Jun-28 06:31N 49°21' W 004°06'2119.6
2015-Jun-28 05:27N 49°12' W 004°36'2419.5
2015-Jun-28 04:11N 48°59' W 005°07'5919.3
2015-Jun-28 01:07N 48°13' W 006°04'7620.3
2015-Jun-27 21:22N 47°05' W 006°56'2420.0
2015-Jun-27 20:10N 46°44' W 007°12'1519.9
2015-Jun-27 19:25N 46°30' W 007°22'34919.4
2015-Jun-27 01:25N 40°58' W 009°49'1719.8
2015-Jun-27 00:33N 40°40' W 009°49'2020.0
2015-Jun-26 23:33N 40°20' W 009°49'2019.9
2015-Jun-26 22:33N 40°01' W 009°49'2019.6
2015-Jun-26 21:33N 39°41' W 009°50'1919.3
2015-Jun-26 20:33N 39°22' W 009°51'1919.3
2015-Jun-26 19:33N 39°02' W 009°51'1919.3
2015-Jun-26 18:33N 38°43' W 009°50'1919.1
2015-Jun-26 17:34N 38°24' W 009°45'1918.8
2015-Jun-26 16:34N 38°06' W 009°38'1918.8
2015-Jun-26 15:33N 37°48' W 009°33'1919.0
2015-Jun-26 14:33N 37°29' W 009°29'1918.9
2015-Jun-26 13:34N 37°11' W 009°24'1919.1
2015-Jun-26 12:34N 36°52' W 009°18'1918.9
2015-Jun-26 11:33N 36°42' W 008°58'1919.4
2015-Jun-26 10:33N 36°36' W 008°35'2019.5
2015-Jun-26 09:33N 36°30' W 008°12'1919.6
2015-Jun-26 08:33N 36°24' W 007°49'11719.5
2015-Jun-26 02:34N 35°59' W 005°27'10018.7
2015-Jun-25 21:13N 36°17' W 003°26'1319.6
2015-Jun-25 20:33N 36°18' W 003°10'2019.6
2015-Jun-25 19:33N 36°21' W 002°46'2020.4
2015-Jun-25 18:33N 36°26' W 002°21'2020.4
2015-Jun-25 17:34N 36°27' W 001°56'2020.3
2015-Jun-25 16:33N 36°29' W 001°31'2020.2
2015-Jun-25 15:33N 36°33' W 001°06'2020.2
2015-Jun-25 14:33N 36°37' W 000°41'2020.3
2015-Jun-25 13:33N 36°42' W 000°17'2020.0
2015-Jun-25 12:34N 36°45' E 000°08'2020.1
2015-Jun-25 11:33N 36°48' E 000°33'8320.2
2015-Jun-25 07:26N 37°02' E 002°15'1719.8
2015-Jun-25 06:33N 37°05' E 002°37'2019.8
2015-Jun-25 05:33N 37°09' E 003°01'2720.0
2015-Jun-25 04:12N 37°13' E 003°35'1320.1
2015-Jun-25 03:33N 37°15' E 003°51'2020.0
2015-Jun-25 02:33N 37°19' E 004°16'4219.9
2015-Jun-25 00:25N 37°26' E 005°08'2019.4
2015-Jun-24 23:23N 37°28' E 005°33'1719.9
2015-Jun-24 22:32N 37°29' E 005°55'2020.3
2015-Jun-24 21:33N 37°31' E 006°20'8020.1
2015-Jun-24 17:33N 37°39' E 008°01'2020.6
2015-Jun-24 16:33N 37°42' E 008°27'2020.1
2015-Jun-24 15:33N 37°43' E 008°52'2020.0
2015-Jun-24 14:31N 37°42' E 009°18'3919.7
2015-Jun-24 12:33N 37°39' E 010°07'  
Track history (hours):
 
Tides and Currents Weather Stations Pressure Air Temp Water Temp Dewpoint Dewpoint Depression Visibility Wind Speed Wind Dir Waves Ship Positions

Nyk Olympus

Last reported at 2015-Jul-04 11:33 UTC. Time now 2015-Jul-04 11:49 UTC.
Position N 53°32' E 009°54'.

Length 335 m; draft 12.1 m.

Type: Other ship. MMSI: 372478000.

Date/timePositionNaut miles runAvg speedWind from/ knotsBaromVisibWave heightAir tempDewpointWater temp
2015-Jul-04 11:33N 53°32' E 009°54'3 2.5
2015-Jul-04 10:32N 53°33' E 009°50'0 0.0
2015-Jul-04 09:32N 53°33' E 009°50'0 0.0
2015-Jul-04 08:26N 53°33' E 009°50'0 0.0
2015-Jul-04 07:33N 53°33' E 009°50'0 0.0
2015-Jul-04 05:28N 53°33' E 009°50'0 0.0
2015-Jul-04 03:29N 53°33' E 009°50'0 0.0
2015-Jul-04 02:29N 53°33' E 009°50'0 0.0
2015-Jul-04 01:23N 53°33' E 009°50'0 0.0
2015-Jul-04 00:29N 53°33' E 009°50'0 0.0
2015-Jul-03 22:32N 53°33' E 009°50'0 0.0
2015-Jul-03 21:33N 53°33' E 009°50'5 5.2
2015-Jul-03 20:33N 53°34' E 009°41'3 2.6
2015-Jul-03 19:34N 53°35' E 009°37'6 5.9
2015-Jul-03 18:33N 53°34' E 009°47'7 6.6
2015-Jul-03 17:34N 53°30' E 009°56'0 0.1
2015-Jul-03 16:33N 53°30' E 009°56'0 0.0
2015-Jul-03 15:33N 53°30' E 009°56'0 0.0
2015-Jul-03 14:33N 53°30' E 009°56'0 0.0
2015-Jul-03 13:33N 53°30' E 009°56'0 0.0
2015-Jul-03 12:33N 53°30' E 009°56'0 0.0
2015-Jul-03 11:33N 53°30' E 009°56'0 0.0
2015-Jul-03 10:33N 53°30' E 009°56'0 0.0
2015-Jul-03 09:33N 53°30' E 009°56'0 0.0
2015-Jul-03 08:20N 53°30' E 009°56'0 0.0
2015-Jul-03 07:29N 53°30' E 009°56'0 0.0
2015-Jul-03 06:27N 53°30' E 009°56'0 0.0
2015-Jul-03 05:31N 53°30' E 009°56'0 0.0
2015-Jul-03 04:24N 53°30' E 009°56'0 0.0
2015-Jul-03 03:28N 53°30' E 009°56'0 0.0
2015-Jul-03 02:30N 53°30' E 009°56'0 0.0
2015-Jul-03 01:33N 53°30' E 009°56'0 0.0
2015-Jul-03 00:33N 53°30' E 009°56'0 0.0
2015-Jul-02 23:33N 53°30' E 009°56'0 0.0
2015-Jul-02 22:33N 53°30' E 009°56'0 0.0
2015-Jul-02 21:33N 53°30' E 009°56'0 0.0
2015-Jul-02 20:33N 53°30' E 009°56'0 0.0
2015-Jul-02 19:33N 53°30' E 009°56'0 0.0
2015-Jul-02 18:33N 53°30' E 009°56'0 0.0
2015-Jul-02 17:30N 53°30' E 009°56'0 0.0
2015-Jul-02 16:33N 53°30' E 009°56'0 0.0
2015-Jul-02 15:33N 53°30' E 009°56'0 0.0
2015-Jul-02 14:27N 53°30' E 009°56'0 0.0
2015-Jul-02 13:33N 53°30' E 009°56'0 0.0
2015-Jul-02 12:30N 53°30' E 009°56'0 0.0
2015-Jul-02 11:30N 53°30' E 009°56'0 0.0
2015-Jul-02 10:33N 53°30' E 009°56'0 0.0
2015-Jul-02 09:33N 53°30' E 009°56'0 0.0
2015-Jul-02 08:33N 53°30' E 009°56'0 0.0
2015-Jul-02 07:29N 53°30' E 009°56'0 0.0
2015-Jul-02 06:24N 53°30' E 009°56'0 0.0
2015-Jul-02 05:33N 53°30' E 009°56'2 2.4
2015-Jul-02 04:33N 53°32' E 009°56'9 8.6
2015-Jul-02 03:33N 53°34' E 009°42'1110.7
2015-Jul-02 02:33N 53°42' E 009°30'1413.7
2015-Jul-02 01:33N 53°53' E 009°15'1111.3
2015-Jul-02 00:33N 53°51' E 008°56'1313.2
2015-Jul-01 23:33N 53°57' E 008°37'1615.6
2015-Jul-01 22:33N 53°59' E 008°10'8 8.2
2015-Jul-01 21:33N 53°58' E 007°56'14 6.6
2015-Jul-01 19:27N 53°55' E 007°33'1716.8
2015-Jul-01 18:28N 53°52' E 007°06'1617.7
2015-Jul-01 17:33N 53°48' E 006°39'1717.3
2015-Jul-01 16:33N 53°43' E 006°11'1716.9
2015-Jul-01 15:34N 53°38' E 005°44'1716.7
2015-Jul-01 14:34N 53°33' E 005°17'1616.1
2015-Jul-01 13:34N 53°27' E 004°52'1514.8
2015-Jul-01 12:34N 53°16' E 004°35'1615.6
2015-Jul-01 11:34N 53°02' E 004°22'1414.3
2015-Jul-01 10:33N 52°49' E 004°13'1313.4
2015-Jul-01 09:33N 52°38' E 004°01'1313.2
2015-Jul-01 08:33N 52°26' E 003°53'1313.4
2015-Jul-01 07:33N 52°12' E 003°53'1110.8
2015-Jul-01 06:33N 52°02' E 003°56'7 6.5
2015-Jul-01 05:33N 51°57' E 004°04'1 0.6
2015-Jul-01 04:33N 51°57' E 004°03'0 0.0
2015-Jul-01 03:33N 51°57' E 004°03'0 0.0
2015-Jul-01 02:33N 51°57' E 004°03'0 0.0
2015-Jul-01 01:33N 51°57' E 004°03'0 0.0
2015-Jul-01 00:33N 51°57' E 004°03'0 0.0
2015-Jun-30 23:31N 51°57' E 004°03'0 0.0
2015-Jun-30 22:31N 51°57' E 004°03'0 0.0
2015-Jun-30 21:31N 51°57' E 004°03'0 0.0
2015-Jun-30 20:31N 51°57' E 004°03'0 0.0
2015-Jun-30 19:31N 51°57' E 004°03'0 0.0
2015-Jun-30 18:32N 51°57' E 004°03'0 0.0
2015-Jun-30 17:31N 51°57' E 004°03'0 0.0
2015-Jun-30 16:31N 51°57' E 004°03'0 0.0
2015-Jun-30 15:31N 51°57' E 004°03'0 0.0
2015-Jun-30 14:31N 51°57' E 004°03'0 0.0
2015-Jun-30 13:28N 51°57' E 004°03'0 0.0
2015-Jun-30 12:31N 51°57' E 004°03'0 0.0
2015-Jun-30 11:31N 51°57' E 004°03'0 0.0
2015-Jun-30 10:31N 51°57' E 004°03'0 0.0
2015-Jun-30 09:31N 51°57' E 004°03'0 0.0
2015-Jun-30 08:31N 51°57' E 004°03'0 0.0
2015-Jun-30 07:31N 51°57' E 004°03'0 0.0
2015-Jun-30 06:31N 51°57' E 004°03'0 0.0
2015-Jun-30 05:31N 51°57' E 004°03'0 0.0
2015-Jun-30 04:31N 51°57' E 004°03'0 0.0
2015-Jun-30 03:31N 51°57' E 004°03'0 0.0
2015-Jun-30 02:31N 51°57' E 004°03'0 0.0
2015-Jun-30 01:31N 51°57' E 004°03'0 0.0
2015-Jun-30 00:31N 51°57' E 004°03'0 0.0
2015-Jun-29 23:31N 51°57' E 004°03'0 0.0
2015-Jun-29 22:31N 51°57' E 004°03'0 0.0
2015-Jun-29 21:31N 51°57' E 004°03'0 0.0
2015-Jun-29 20:31N 51°57' E 004°03'0 0.0
2015-Jun-29 19:31N 51°57' E 004°03'0 0.0
2015-Jun-29 18:31N 51°57' E 004°03'0 0.0
2015-Jun-29 17:31N 51°57' E 004°03'0 0.0
2015-Jun-29 16:31N 51°57' E 004°03'0 0.0
2015-Jun-29 15:31N 51°57' E 004°03'0 0.0
2015-Jun-29 14:31N 51°57' E 004°03'0 0.0
2015-Jun-29 13:31N 51°57' E 004°03'0 0.0
2015-Jun-29 12:28N 51°57' E 004°03'0 0.0
2015-Jun-29 11:31N 51°57' E 004°03'0 0.0
2015-Jun-29 10:31N 51°57' E 004°03'0 0.0
2015-Jun-29 09:31N 51°57' E 004°03'0 0.0
2015-Jun-29 08:28N 51°57' E 004°03'0 0.0
2015-Jun-29 07:31N 51°57' E 004°03'0 0.0
2015-Jun-29 06:31N 51°57' E 004°03'0 0.0
2015-Jun-29 05:31N 51°57' E 004°03'1 1.3
2015-Jun-29 04:33N 51°57' E 004°05'5 5.3
2015-Jun-29 03:33N 52°00' E 003°58'9 8.7
2015-Jun-29 02:34N 51°59' E 003°44'1716.8
2015-Jun-29 01:33N 51°54' E 003°18'1717.5
2015-Jun-29 00:33N 51°48' E 002°51'1717.5
2015-Jun-28 23:34N 51°38' E 002°28'1918.5
2015-Jun-28 22:33N 51°24' E 002°08'1716.9
2015-Jun-28 21:34N 51°10' E 001°54'1919.3
2015-Jun-28 20:34N 50°56' E 001°32'5317.2
2015-Jun-28 17:28N 50°23' E 000°27'1718.6
2015-Jun-28 16:31N 50°17' E 000°01'1818.4
2015-Jun-28 15:33N 50°10' W 000°25'1818.5
2015-Jun-28 14:33N 50°03' W 000°51'1818.4
2015-Jun-28 13:33N 49°55' W 001°17'2812.5
2015-Jun-28 11:21N 49°48' W 001°58'1517.8
2015-Jun-28 10:30N 49°53' W 002°21'1818.5
2015-Jun-28 09:31N 49°49' W 002°48'2519.2
2015-Jun-28 08:12N 49°36' W 003°22'1219.4
2015-Jun-28 07:33N 49°30' W 003°39'2019.4
2015-Jun-28 06:31N 49°21' W 004°06'2119.6
2015-Jun-28 05:27N 49°12' W 004°36'2419.5
2015-Jun-28 04:11N 48°59' W 005°07'5919.3
2015-Jun-28 01:07N 48°13' W 006°04'7620.3
2015-Jun-27 21:22N 47°05' W 006°56'2420.0
2015-Jun-27 20:10N 46°44' W 007°12'1519.9
2015-Jun-27 19:25N 46°30' W 007°22'34919.4
2015-Jun-27 01:25N 40°58' W 009°49'1719.8
2015-Jun-27 00:33N 40°40' W 009°49'2020.0
2015-Jun-26 23:33N 40°20' W 009°49'2019.9
2015-Jun-26 22:33N 40°01' W 009°49'2019.6
2015-Jun-26 21:33N 39°41' W 009°50'1919.3
2015-Jun-26 20:33N 39°22' W 009°51'1919.3
2015-Jun-26 19:33N 39°02' W 009°51'1919.3
2015-Jun-26 18:33N 38°43' W 009°50'1919.1
2015-Jun-26 17:34N 38°24' W 009°45'1918.8
2015-Jun-26 16:34N 38°06' W 009°38'1918.8
2015-Jun-26 15:33N 37°48' W 009°33'1919.0
2015-Jun-26 14:33N 37°29' W 009°29'1918.9
2015-Jun-26 13:34N 37°11' W 009°24'1919.1
2015-Jun-26 12:34N 36°52' W 009°18'1918.9
2015-Jun-26 11:33N 36°42' W 008°58'1919.4
2015-Jun-26 10:33N 36°36' W 008°35'2019.5
2015-Jun-26 09:33N 36°30' W 008°12'1919.6
2015-Jun-26 08:33N 36°24' W 007°49'11719.5
2015-Jun-26 02:34N 35°59' W 005°27'10018.7
2015-Jun-25 21:13N 36°17' W 003°26'1319.6
2015-Jun-25 20:33N 36°18' W 003°10'2019.6
2015-Jun-25 19:33N 36°21' W 002°46'2020.4
2015-Jun-25 18:33N 36°26' W 002°21'2020.4
2015-Jun-25 17:34N 36°27' W 001°56'2020.3
2015-Jun-25 16:33N 36°29' W 001°31'2020.2
2015-Jun-25 15:33N 36°33' W 001°06'2020.2
2015-Jun-25 14:33N 36°37' W 000°41'2020.3
2015-Jun-25 13:33N 36°42' W 000°17'2020.0
2015-Jun-25 12:34N 36°45' E 000°08'2020.1
2015-Jun-25 11:33N 36°48' E 000°33'8320.2
2015-Jun-25 07:26N 37°02' E 002°15'1719.8
2015-Jun-25 06:33N 37°05' E 002°37'2019.8
2015-Jun-25 05:33N 37°09' E 003°01'2720.0
2015-Jun-25 04:12N 37°13' E 003°35'1320.1
2015-Jun-25 03:33N 37°15' E 003°51'2020.0
2015-Jun-25 02:33N 37°19' E 004°16'4219.9
2015-Jun-25 00:25N 37°26' E 005°08'2019.4
2015-Jun-24 23:23N 37°28' E 005°33'1719.9
2015-Jun-24 22:32N 37°29' E 005°55'2020.3
2015-Jun-24 21:33N 37°31' E 006°20'8020.1
2015-Jun-24 17:33N 37°39' E 008°01'2020.6
2015-Jun-24 16:33N 37°42' E 008°27'2020.1
2015-Jun-24 15:33N 37°43' E 008°52'2020.0
2015-Jun-24 14:31N 37°42' E 009°18'3919.7
2015-Jun-24 12:33N 37°39' E 010°07'  

Dump ship's entire track history